createdAt,value
2023-01-22T00:00:00.499Z,6.5
2023-01-22T00:05:00.532Z,10.2
2023-01-22T00:10:00.564Z,9.5
2023-01-22T00:15:00.470Z,9.8
2023-01-22T00:20:00.498Z,9.7
2023-01-22T00:25:00.457Z,8.7
2023-01-22T00:30:00.752Z,8.7
2023-01-22T00:35:00.402Z,7.8
2023-01-22T00:40:00.518Z,9.6
2023-01-22T00:45:00.403Z,9.8
2023-01-22T00:50:00.490Z,7.0
2023-01-22T00:55:00.710Z,10.4
2023-01-22T01:00:00.773Z,5.7
2023-01-22T01:05:00.462Z,10.5
2023-01-22T01:10:00.497Z,8.6
2023-01-22T01:15:00.486Z,5.3
2023-01-22T01:20:00.508Z,4.8
2023-01-22T01:25:00.481Z,5.7
2023-01-22T01:30:00.589Z,5.2
2023-01-22T01:35:00.475Z,4.4
2023-01-22T01:40:00.519Z,5.6
2023-01-22T01:45:00.462Z,2.9
2023-01-22T01:50:00.513Z,5.4
2023-01-22T01:55:00.551Z,4.1
2023-01-22T02:00:00.573Z,3.4
2023-01-22T02:05:00.508Z,3.3
2023-01-22T02:10:00.493Z,3.6
2023-01-22T02:15:00.486Z,4.9
2023-01-22T02:20:00.530Z,3.3
2023-01-22T02:25:00.484Z,4.0
2023-01-22T02:30:00.511Z,3.9
2023-01-22T02:35:00.473Z,3.1
2023-01-22T02:40:00.509Z,2.5
2023-01-22T02:45:00.461Z,1.9
2023-01-22T02:50:00.495Z,1.8
2023-01-22T02:55:00.503Z,3.9
2023-01-22T03:00:00.500Z,3.2
2023-01-22T03:05:00.459Z,2.9
2023-01-22T03:10:00.559Z,3.6
2023-01-22T03:15:00.530Z,2.7
2023-01-22T03:20:00.624Z,3.2
2023-01-22T03:25:00.558Z,4.2
2023-01-22T03:30:00.526Z,4.6
2023-01-22T03:35:00.479Z,3.9
2023-01-22T03:40:00.591Z,4.3
2023-01-22T03:45:00.475Z,5.6
2023-01-22T03:50:00.531Z,4.3
2023-01-22T03:55:00.482Z,3.4
2023-01-22T04:00:00.727Z,5.2
2023-01-22T04:05:00.511Z,4.0
2023-01-22T04:10:00.505Z,5.6
2023-01-22T04:15:00.491Z,4.5
2023-01-22T04:20:00.507Z,6.0
2023-01-22T04:25:00.530Z,8.5
2023-01-22T04:30:00.489Z,6.7
2023-01-22T04:35:00.481Z,4.9
2023-01-22T04:40:00.975Z,9.1
2023-01-22T04:45:00.466Z,6.3
2023-01-22T04:50:00.501Z,5.5
2023-01-22T04:55:00.495Z,5.5
2023-01-22T05:00:00.577Z,5.4
2023-01-22T05:05:00.505Z,7.6
2023-01-22T05:10:00.523Z,5.3
2023-01-22T05:15:00.457Z,6.1
2023-01-22T05:20:00.554Z,5.9
2023-01-22T05:25:00.492Z,5.8
2023-01-22T05:30:00.521Z,4.6
2023-01-22T05:35:00.461Z,5.4
2023-01-22T05:40:00.613Z,6.3
2023-01-22T05:45:00.479Z,7.2
2023-01-22T05:50:00.499Z,4.8
2023-01-22T05:55:00.450Z,7.4
2023-01-22T06:00:00.496Z,5.8
2023-01-22T06:05:00.566Z,5.1
2023-01-22T06:10:00.543Z,5.1
2023-01-22T06:15:00.489Z,6.2
2023-01-22T06:20:00.515Z,6.0
2023-01-22T06:25:00.481Z,4.3
2023-01-22T06:30:00.559Z,6.0
2023-01-22T06:35:00.489Z,7.3
2023-01-22T06:40:00.566Z,6.0
2023-01-22T06:45:00.464Z,6.7
2023-01-22T06:50:00.495Z,6.2
2023-01-22T06:55:00.479Z,6.1
2023-01-22T07:00:00.496Z,3.7
2023-01-22T07:05:00.532Z,4.3
2023-01-22T07:10:00.525Z,5.7
2023-01-22T07:15:00.465Z,4.4
2023-01-22T07:20:00.494Z,4.6
2023-01-22T07:25:02.313Z,5.4
2023-01-22T07:30:00.525Z,5.1
2023-01-22T07:35:00.473Z,5.2
2023-01-22T07:40:00.945Z,4.0
2023-01-22T07:45:00.468Z,5.5
2023-01-22T07:50:00.542Z,5.9
2023-01-22T07:55:00.468Z,4.8
2023-01-22T08:00:00.510Z,5.8
2023-01-22T08:05:00.482Z,5.6
2023-01-22T08:10:00.504Z,5.7
2023-01-22T08:15:00.484Z,6.0
2023-01-22T08:20:00.511Z,6.2
2023-01-22T08:25:00.490Z,6.0
2023-01-22T08:30:00.499Z,6.8
2023-01-22T08:35:00.506Z,4.7
2023-01-22T08:40:00.512Z,5.7
2023-01-22T08:45:00.471Z,3.9
2023-01-22T08:50:00.504Z,5.6
2023-01-22T08:55:00.484Z,5.6
2023-01-22T09:00:01.837Z,4.7
2023-01-22T09:05:00.480Z,5.7
2023-01-22T09:10:00.541Z,4.2
2023-01-22T09:15:00.476Z,4.7
2023-01-22T09:20:00.497Z,7.3
2023-01-22T09:25:00.467Z,6.1
2023-01-22T09:30:00.513Z,5.6
2023-01-22T09:35:00.486Z,6.5
2023-01-22T09:40:00.672Z,8.1
2023-01-22T09:45:00.512Z,5.1
2023-01-22T09:50:00.555Z,9.1
2023-01-22T09:55:00.489Z,7.4
2023-01-22T10:00:00.544Z,8.6
2023-01-22T10:05:00.507Z,7.5
2023-01-22T10:10:00.556Z,6.9
2023-01-22T10:15:00.493Z,7.1
2023-01-22T10:20:00.521Z,8.4
2023-01-22T10:25:00.518Z,4.6
2023-01-22T10:30:00.538Z,6.1
2023-01-22T10:35:00.519Z,4.1
2023-01-22T10:40:00.583Z,7.8
2023-01-22T10:45:00.534Z,7.5
2023-01-22T10:50:04.856Z,6.6
2023-01-22T10:55:00.637Z,5.9
2023-01-22T11:00:00.548Z,8.9
2023-01-22T11:05:00.496Z,5.1
2023-01-22T11:10:00.589Z,8.3
2023-01-22T11:15:00.522Z,5.0
2023-01-22T11:20:00.527Z,6.6
2023-01-22T11:25:00.499Z,5.3
2023-01-22T11:30:00.571Z,4.0
2023-01-22T11:35:00.532Z,8.5
2023-01-22T11:40:00.716Z,9.7
2023-01-22T11:45:00.581Z,8.1
2023-01-22T11:50:00.537Z,8.1
2023-01-22T11:55:00.509Z,8.2
2023-01-22T12:00:00.556Z,5.5
2023-01-22T12:05:00.488Z,7.7
2023-01-22T12:10:00.799Z,5.7
2023-01-22T12:15:00.534Z,7.9
2023-01-22T12:20:00.716Z,7.5
2023-01-22T12:25:00.492Z,9.2
2023-01-22T12:30:00.564Z,7.8
2023-01-22T12:35:00.514Z,9.0
2023-01-22T12:40:00.532Z,9.6
2023-01-22T12:45:00.498Z,7.5
2023-01-22T12:50:05.025Z,10.3
2023-01-22T12:55:00.469Z,6.9
2023-01-22T13:00:00.521Z,8.0
2023-01-22T13:05:00.456Z,8.8
2023-01-22T13:10:00.505Z,7.0
2023-01-22T13:15:00.479Z,7.9
2023-01-22T13:20:00.532Z,6.9
2023-01-22T13:25:00.483Z,10.9
2023-01-22T13:30:00.504Z,5.9
2023-01-22T13:35:00.484Z,7.0
2023-01-22T13:40:00.533Z,8.4
2023-01-22T13:45:00.486Z,7.6
2023-01-22T13:50:00.522Z,9.1
2023-01-22T13:55:00.522Z,8.1
2023-01-22T14:00:00.548Z,9.3
2023-01-22T14:05:00.422Z,7.3
2023-01-22T14:10:00.539Z,9.5
2023-01-22T14:15:00.503Z,8.6
2023-01-22T14:20:00.497Z,9.2
2023-01-22T14:25:00.628Z,11.3
2023-01-22T14:30:00.507Z,8.5
2023-01-22T14:35:00.515Z,11.8
2023-01-22T14:40:00.560Z,8.9
2023-01-22T14:45:00.470Z,9.9
2023-01-22T14:50:00.493Z,11.6
2023-01-22T14:55:00.477Z,5.0
2023-01-22T15:00:00.564Z,8.4
2023-01-22T15:05:00.529Z,7.7
2023-01-22T15:10:02.750Z,7.5
2023-01-22T15:15:00.462Z,6.4
2023-01-22T15:20:00.523Z,6.0
2023-01-22T15:25:00.495Z,5.1
2023-01-22T15:30:00.497Z,7.1
2023-01-22T15:35:00.476Z,5.3
2023-01-22T15:40:00.501Z,4.6
2023-01-22T15:45:00.488Z,6.6
2023-01-22T15:50:00.540Z,4.3
2023-01-22T15:55:00.516Z,5.9
2023-01-22T16:00:00.524Z,5.1
2023-01-22T16:05:00.502Z,5.8
2023-01-22T16:10:02.508Z,6.3
2023-01-22T16:15:00.508Z,6.3
2023-01-22T16:20:02.572Z,2.5
2023-01-22T16:25:00.488Z,6.1
2023-01-22T16:30:00.552Z,5.0
2023-01-22T16:35:00.485Z,4.9
2023-01-22T16:40:02.488Z,6.6
2023-01-22T16:45:00.488Z,7.1
2023-01-22T16:50:00.851Z,9.1
2023-01-22T16:55:00.555Z,7.1
2023-01-22T17:00:02.974Z,7.8
2023-01-22T17:05:00.459Z,4.3
2023-01-22T17:10:00.821Z,5.8
2023-01-22T17:15:00.464Z,5.6
2023-01-22T17:20:00.515Z,6.4
2023-01-22T17:25:00.501Z,5.4
2023-01-22T17:30:02.485Z,6.6
2023-01-22T17:35:00.565Z,6.2
2023-01-22T17:40:00.658Z,4.9
2023-01-22T17:45:00.501Z,4.3
2023-01-22T17:50:00.688Z,6.3
2023-01-22T17:55:00.583Z,4.4
2023-01-22T18:00:00.534Z,5.9
2023-01-22T18:05:00.460Z,2.9
2023-01-22T18:10:00.599Z,6.2
2023-01-22T18:15:02.971Z,5.5
2023-01-22T18:20:00.497Z,4.4
2023-01-22T18:25:00.497Z,5.2
2023-01-22T18:30:00.535Z,4.8
2023-01-22T18:35:00.532Z,3.3
2023-01-22T18:40:00.511Z,4.4
2023-01-22T18:45:00.456Z,4.2
2023-01-22T18:50:00.511Z,4.8
2023-01-22T18:55:00.601Z,2.6
2023-01-22T19:00:00.499Z,2.8
2023-01-22T19:05:00.460Z,4.2
2023-01-22T19:10:02.450Z,2.4
2023-01-22T19:15:02.510Z,4.0
2023-01-22T19:20:00.514Z,1.8
2023-01-22T19:25:00.487Z,3.8
2023-01-22T19:30:00.537Z,4.5
2023-01-22T19:35:00.483Z,4.3
2023-01-22T19:40:00.545Z,3.3
2023-01-22T19:45:00.483Z,3.6
2023-01-22T19:50:00.502Z,4.4
2023-01-22T19:55:00.476Z,5.1
2023-01-22T20:00:00.531Z,3.7
2023-01-22T20:05:00.479Z,4.6
2023-01-22T20:10:00.536Z,4.8
2023-01-22T20:15:00.482Z,4.0
2023-01-22T20:20:00.566Z,3.5
2023-01-22T20:25:00.461Z,4.5
2023-01-22T20:30:00.535Z,4.6
2023-01-22T20:35:00.487Z,7.0
2023-01-22T20:40:00.529Z,5.3
2023-01-22T20:45:00.492Z,5.4
2023-01-22T20:50:00.593Z,3.8
2023-01-22T20:55:02.792Z,4.6
2023-01-22T21:00:00.518Z,7.4
2023-01-22T21:05:00.497Z,4.6
2023-01-22T21:10:00.550Z,4.5
2023-01-22T21:20:00.645Z,4.7
2023-01-22T21:30:00.571Z,4.0
2023-01-22T21:35:00.437Z,5.3
2023-01-22T21:40:00.525Z,5.2
2023-01-22T21:45:00.461Z,3.5
2023-01-22T21:50:00.455Z,2.7
2023-01-22T21:55:00.450Z,3.2
2023-01-22T22:00:00.464Z,3.3
2023-01-22T22:05:00.459Z,0.9
2023-01-22T22:10:00.435Z,5.3
2023-01-22T22:15:00.401Z,3.3
2023-01-22T22:20:00.452Z,2.6
2023-01-22T22:25:00.500Z,3.9
2023-01-22T22:30:00.446Z,3.7
2023-01-22T22:35:00.385Z,3.2
2023-01-22T22:40:00.506Z,2.9
2023-01-22T22:45:00.502Z,3.2
2023-01-22T22:50:00.447Z,3.0
2023-01-22T22:55:00.401Z,3.5
2023-01-22T23:00:00.500Z,2.4
2023-01-22T23:05:00.441Z,4.5
2023-01-22T23:10:00.442Z,4.3
2023-01-22T23:15:00.480Z,4.7
2023-01-22T23:20:00.461Z,2.5
2023-01-22T23:25:00.442Z,6.2
2023-01-22T23:30:00.465Z,3.5
2023-01-22T23:35:00.449Z,4.6
2023-01-22T23:40:00.459Z,5.1
2023-01-22T23:45:00.466Z,3.7
2023-01-22T23:50:00.446Z,6.0
2023-01-22T23:55:00.461Z,3.7
